Alma, New York
Current Conditions -  °F | °C
As of 9:56 PM on Sunday 23 Nov 2014 (Local Time) from KELZ Reporting Station
Overcast Overcast  
Wind Chill: 41°   Ceiling: 1900
Heat Index: 48°   Visibility: 10mi
Dew Point: 32°   Wind: 22mph
Humidity: 54%   Direction: 160°SSE
Pressure: 29.79"   Gusts: 33mph
Location:  42.01°N, 78.06°W
Report Text: KELZ 240256Z AUTO 16019G29KT 10SM OVC019 09/00 A2979 RMK AO2 PK WND 16030/0239 SLP095 T00890000 56029
Loading
Personal Weather Stations






























Interactive Weather Map New forecast layout! Learn more

10-Day Weather Forecast

Advertisements
Track Severe Weather on mobile